Time,TemperatureF,DewpointF,PressureIn,WindDirection,WindDirectionDegrees,WindSpeedMPH,WindSpeedGustMPH,Humidity,HourlyPrecipIn,Conditions,Clouds,dailyrainin,SoftwareType,DateUTC
2013-01-19 00:00:00,31.3,15.3,30.47,NNW,341,0.0,0.0,51,0.00,,---,0.00,VWS V14.01,2013-01-19 05:00:00,
2013-01-19 00:01:00,31.3,15.3,30.47,NNW,341,0.0,0.0,51,0.00,,---,0.00,VWS V14.01,2013-01-19 05:01:00,
2013-01-19 00:03:00,30.7,15.2,30.47,NNW,341,0.0,0.0,52,0.00,,---,0.00,VWS V14.01,2013-01-19 05:03:00,
2013-01-19 00:05:00,30.6,15.0,30.47,NNW,341,0.0,0.0,52,0.00,,---,0.00,VWS V14.01,2013-01-19 05:05:00,
2013-01-19 00:06:00,30.4,14.9,30.47,NNW,341,0.0,0.0,52,0.00,,---,0.00,VWS V14.01,2013-01-19 05:06:00,
2013-01-19 00:08:00,30.4,14.9,30.47,NNW,341,0.0,0.0,52,0.00,,---,0.00,VWS V14.01,2013-01-19 05:08:00,
2013-01-19 00:10:00,30.4,14.9,30.47,NNW,341,0.0,0.0,52,0.00,,---,0.00,VWS V14.01,2013-01-19 05:10:00,
2013-01-19 00:11:00,30.4,14.9,30.47,NNW,341,0.0,0.0,52,0.00,,---,0.00,VWS V14.01,2013-01-19 05:11:00,
2013-01-19 00:13:00,29.8,14.4,30.47,NNW,341,0.0,0.0,52,0.00,,---,0.00,VWS V14.01,2013-01-19 05:13:00,
2013-01-19 00:15:00,29.8,14.8,30.47,NNW,341,0.0,0.0,53,0.00,,---,0.00,VWS V14.01,2013-01-19 05:15:00,
2013-01-19 00:16:00,29.7,14.6,30.47,NNW,341,0.0,0.0,53,0.00,,---,0.00,VWS V14.01,2013-01-19 05:16:00,
2013-01-19 00:18:00,29.5,14.5,30.47,NNW,341,0.0,0.0,53,0.00,,---,0.00,VWS V14.01,2013-01-19 05:18:00,
2013-01-19 00:20:00,29.5,14.5,30.47,NNW,341,0.0,0.0,53,0.00,,---,0.00,VWS V14.01,2013-01-19 05:20:00,
2013-01-19 00:21:00,29.5,14.5,30.47,NNW,341,0.0,0.0,53,0.00,,---,0.00,VWS V14.01,2013-01-19 05:21:00,
2013-01-19 00:23:00,29.3,14.3,30.47,NNW,341,0.0,0.0,53,0.00,,---,0.00,VWS V14.01,2013-01-19 05:23:00,
2013-01-19 00:25:00,28.9,14.0,30.47,NNW,341,0.0,0.0,53,0.00,,---,0.00,VWS V14.01,2013-01-19 05:25:00,
2013-01-19 00:27:00,28.9,14.0,30.47,NNW,341,0.0,0.0,53,0.00,,---,0.00,VWS V14.01,2013-01-19 05:27:00,
2013-01-19 00:28:00,28.8,13.8,30.47,NNW,341,0.0,0.0,53,0.00,,---,0.00,VWS V14.01,2013-01-19 05:28:00,
2013-01-19 00:30:00,28.6,14.1,30.47,NNW,341,0.0,0.0,54,0.00,,---,0.00,VWS V14.01,2013-01-19 05:30:00,
2013-01-19 00:32:00,28.6,14.1,30.47,NNW,341,0.0,0.0,54,0.00,,---,0.00,VWS V14.01,2013-01-19 05:32:00,
2013-01-19 00:33:00,28.4,13.9,30.47,NNW,341,0.0,0.0,54,0.00,,---,0.00,VWS V14.01,2013-01-19 05:33:00,
2013-01-19 00:35:00,28.4,13.9,30.45,NNW,341,0.0,0.0,54,0.00,,---,0.00,VWS V14.01,2013-01-19 05:35:00,
2013-01-19 00:37:00,28.4,13.9,30.45,NNW,341,0.0,0.0,54,0.00,,---,0.00,VWS V14.01,2013-01-19 05:37:00,
2013-01-19 00:38:00,28.4,13.9,30.45,NNW,341,0.0,0.0,54,0.00,,---,0.00,VWS V14.01,2013-01-19 05:38:00,
2013-01-19 00:40:00,28.4,13.9,30.45,NNW,341,0.0,0.0,54,0.00,,---,0.00,VWS V14.01,2013-01-19 05:40:00,
2013-01-19 00:42:00,28.4,13.9,30.45,NNW,341,0.0,0.0,54,0.00,,---,0.00,VWS V14.01,2013-01-19 05:42:00,
2013-01-19 00:43:00,27.9,13.8,30.45,NNW,341,0.0,0.0,55,0.00,,---,0.00,VWS V14.01,2013-01-19 05:43:00,
2013-01-19 00:45:00,27.9,13.8,30.45,NNW,341,0.0,0.0,55,0.00,,---,0.00,VWS V14.01,2013-01-19 05:45:00,
2013-01-19 00:47:00,27.9,13.8,30.47,NNW,341,0.0,0.0,55,0.00,,---,0.00,VWS V14.01,2013-01-19 05:47:00,
2013-01-19 00:48:00,27.9,13.8,30.47,NNW,341,0.0,0.0,55,0.00,,---,0.00,VWS V14.01,2013-01-19 05:48:00,
2013-01-19 00:50:00,27.7,14.0,30.47,NNW,341,0.0,0.0,56,0.00,,---,0.00,VWS V14.01,2013-01-19 05:50:00,
2013-01-19 00:52:00,27.7,14.0,30.47,NNW,341,0.0,0.0,56,0.00,,---,0.00,VWS V14.01,2013-01-19 05:52:00,
2013-01-19 00:53:00,27.7,14.0,30.47,NNW,341,0.0,0.0,56,0.00,,---,0.00,VWS V14.01,2013-01-19 05:53:00,
2013-01-19 00:55:00,27.5,13.9,30.47,NNW,341,0.0,0.0,56,0.00,,---,0.00,VWS V14.01,2013-01-19 05:55:00,
2013-01-19 00:57:00,27.5,13.9,30.47,NNW,341,0.0,0.0,56,0.00,,---,0.00,VWS V14.01,2013-01-19 05:57:00,
2013-01-19 00:58:00,27.5,13.9,30.47,NNW,341,0.0,0.0,56,0.00,,---,0.00,VWS V14.01,2013-01-19 05:58:00,
2013-01-19 01:00:00,27.5,13.9,30.47,NNW,341,0.0,0.0,56,0.00,,---,0.00,VWS V14.01,2013-01-19 06:00:00,
2013-01-19 01:02:00,27.5,14.3,30.47,NNW,341,0.0,0.0,57,0.00,,---,0.00,VWS V14.01,2013-01-19 06:02:00,
2013-01-19 01:03:00,27.5,14.3,30.47,NNW,341,0.0,0.0,57,0.00,,---,0.00,VWS V14.01,2013-01-19 06:03:00,
2013-01-19 01:05:00,27.3,14.1,30.47,NNW,341,0.0,0.0,57,0.00,,---,0.00,VWS V14.01,2013-01-19 06:05:00,
2013-01-19 01:07:00,27.3,14.1,30.47,NNW,341,0.0,0.0,57,0.00,,---,0.00,VWS V14.01,2013-01-19 06:07:00,
2013-01-19 01:08:00,27.3,14.1,30.47,NNW,341,0.0,0.0,57,0.00,,---,0.00,VWS V14.01,2013-01-19 06:08:00,
2013-01-19 01:10:00,27.3,14.1,30.47,NNW,341,0.0,0.0,57,0.00,,---,0.00,VWS V14.01,2013-01-19 06:10:00,
2013-01-19 01:12:00,27.1,13.9,30.47,NNW,341,0.0,0.0,57,0.00,,---,0.00,VWS V14.01,2013-01-19 06:12:00,
2013-01-19 01:13:00,27.1,13.9,30.47,NNW,341,0.0,0.0,57,0.00,,---,0.00,VWS V14.01,2013-01-19 06:13:00,
2013-01-19 01:15:00,27.1,13.9,30.47,NNW,341,0.0,0.0,57,0.00,,---,0.00,VWS V14.01,2013-01-19 06:15:00,
2013-01-19 01:17:00,27.1,14.3,30.47,NNW,341,0.0,0.0,58,0.00,,---,0.00,VWS V14.01,2013-01-19 06:17:00,
2013-01-19 01:18:00,27.1,14.3,30.47,NNW,341,0.0,0.0,58,0.00,,---,0.00,VWS V14.01,2013-01-19 06:18:00,
2013-01-19 01:20:00,27.3,14.5,30.47,NNW,341,0.0,0.0,58,0.00,,---,0.00,VWS V14.01,2013-01-19 06:20:00,
2013-01-19 01:23:00,27.3,14.5,30.47,NNW,341,0.0,0.0,58,0.00,,---,0.00,VWS V14.01,2013-01-19 06:23:00,
2013-01-19 01:26:00,27.3,14.5,30.47,NNW,341,0.0,0.0,58,0.00,,---,0.00,VWS V14.01,2013-01-19 06:26:00,
2013-01-19 01:28:00,27.3,14.5,30.47,NNW,341,0.0,0.0,58,0.00,,---,0.00,VWS V14.01,2013-01-19 06:28:00,
2013-01-19 01:31:00,27.3,14.9,30.47,NNW,341,0.0,0.0,59,0.00,,---,0.00,VWS V14.01,2013-01-19 06:31:00,
2013-01-19 01:33:00,27.3,14.9,30.47,NNW,341,0.0,0.0,59,0.00,,---,0.00,VWS V14.01,2013-01-19 06:33:00,
2013-01-19 01:36:00,27.5,15.1,30.47,NNW,341,0.0,0.0,59,0.00,,---,0.00,VWS V14.01,2013-01-19 06:36:00,
2013-01-19 01:38:00,27.5,15.4,30.47,NNW,341,0.0,0.0,60,0.00,,---,0.00,VWS V14.01,2013-01-19 06:38:00,
2013-01-19 01:42:00,27.5,15.4,30.47,NNW,341,0.0,0.0,60,0.00,,---,0.00,VWS V14.01,2013-01-19 06:42:00,
2013-01-19 01:43:00,27.5,15.4,30.45,NNW,341,0.0,0.0,60,0.00,,---,0.00,VWS V14.01,2013-01-19 06:43:00,
2013-01-19 01:44:00,27.7,15.6,30.45,NNW,341,0.0,0.0,60,0.00,,---,0.00,VWS V14.01,2013-01-19 06:44:00,
2013-01-19 01:47:00,27.7,15.6,30.45,NNW,341,0.0,0.0,60,0.00,,---,0.00,VWS V14.01,2013-01-19 06:47:00,
2013-01-19 01:48:00,27.7,15.6,30.45,NNW,341,0.0,0.0,60,0.00,,---,0.00,VWS V14.01,2013-01-19 06:48:00,
2013-01-19 01:49:00,27.7,15.6,30.45,NNW,341,0.0,0.0,60,0.00,,---,0.00,VWS V14.01,2013-01-19 06:49:00,
2013-01-19 01:52:00,27.7,15.6,30.45,NNW,341,0.0,0.0,60,0.00,,---,0.00,VWS V14.01,2013-01-19 06:52:00,
2013-01-19 01:53:00,27.9,15.8,30.45,NNW,341,2.2,2.2,60,0.00,,---,0.00,VWS V14.01,2013-01-19 06:53:00,
2013-01-19 01:54:00,27.9,16.2,30.45,NNW,341,2.2,2.2,61,0.00,,---,0.00,VWS V14.01,2013-01-19 06:54:00,
2013-01-19 01:57:00,28.0,16.3,30.45,NNW,341,2.2,2.2,61,0.00,,---,0.00,VWS V14.01,2013-01-19 06:57:00,
2013-01-19 01:58:00,28.0,16.3,30.45,NNW,341,0.0,0.0,61,0.00,,---,0.00,VWS V14.01,2013-01-19 06:58:00,
2013-01-19 01:59:00,28.0,16.3,30.45,NNW,341,0.0,0.0,61,0.00,,---,0.00,VWS V14.01,2013-01-19 06:59:00,
2013-01-19 02:02:00,28.2,16.5,30.45,NNW,340,0.0,2.7,61,0.00,,---,0.00,VWS V14.01,2013-01-19 07:02:00,
2013-01-19 02:03:00,28.2,16.5,30.45,NNW,340,0.0,0.0,61,0.00,,---,0.00,VWS V14.01,2013-01-19 07:03:00,
2013-01-19 02:04:00,28.2,16.5,30.45,NNW,332,0.0,2.7,61,0.00,,---,0.00,VWS V14.01,2013-01-19 07:04:00,
2013-01-19 02:07:00,28.6,16.9,30.45,NNW,332,0.0,0.0,61,0.00,,---,0.00,VWS V14.01,2013-01-19 07:07:00,
2013-01-19 02:08:00,28.6,16.9,30.45,NNW,332,2.7,2.7,61,0.00,,---,0.00,VWS V14.01,2013-01-19 07:08:00,
2013-01-19 02:09:00,28.6,16.9,30.45,NNW,332,2.7,2.7,61,0.00,,---,0.00,VWS V14.01,2013-01-19 07:09:00,
2013-01-19 02:12:00,28.8,17.4,30.45,NW,326,3.6,3.6,62,0.00,,---,0.00,VWS V14.01,2013-01-19 07:12:00,
2013-01-19 02:13:00,28.8,17.4,30.45,NNW,331,2.7,2.7,62,0.00,,---,0.00,VWS V14.01,2013-01-19 07:13:00,
2013-01-19 02:14:00,29.1,17.7,30.45,NNW,332,3.1,3.1,62,0.00,,---,0.00,VWS V14.01,2013-01-19 07:14:00,
2013-01-19 02:17:00,29.3,18.3,30.45,NNW,341,3.6,3.6,63,0.00,,---,0.00,VWS V14.01,2013-01-19 07:17:00,
2013-01-19 02:18:00,29.3,18.3,30.45,NNW,341,2.7,2.7,63,0.00,,---,0.00,VWS V14.01,2013-01-19 07:18:00,
2013-01-19 02:19:00,29.5,18.5,30.45,NNW,341,2.7,2.7,63,0.00,,---,0.00,VWS V14.01,2013-01-19 07:19:00,
2013-01-19 02:22:00,29.8,19.5,30.45,NW,315,2.7,2.7,65,0.00,,---,0.00,VWS V14.01,2013-01-19 07:22:00,
2013-01-19 02:23:00,29.8,19.5,30.45,NW,315,2.7,2.7,65,0.00,,---,0.00,VWS V14.01,2013-01-19 07:23:00,
2013-01-19 02:24:00,30.0,19.3,30.45,NW,316,2.7,2.7,64,0.00,,---,0.00,VWS V14.01,2013-01-19 07:24:00,
2013-01-19 02:27:00,30.0,19.7,30.45,NNW,342,4.0,4.0,65,0.00,,---,0.00,VWS V14.01,2013-01-19 07:27:00,
2013-01-19 02:28:00,30.2,19.9,30.45,NNW,342,4.0,4.0,65,0.00,,---,0.00,VWS V14.01,2013-01-19 07:28:00,
2013-01-19 02:29:00,30.2,19.9,30.45,NNW,343,3.1,3.6,65,0.00,,---,0.00,VWS V14.01,2013-01-19 07:29:00,
2013-01-19 02:32:00,30.4,19.7,30.45,NNW,335,0.0,0.0,64,0.00,,---,0.00,VWS V14.01,2013-01-19 07:32:00,
2013-01-19 02:33:00,30.6,20.2,30.45,NNW,335,0.0,0.0,65,0.00,,---,0.00,VWS V14.01,2013-01-19 07:33:00,
2013-01-19 02:34:00,30.6,20.2,30.45,NNW,334,2.2,2.2,65,0.00,,---,0.00,VWS V14.01,2013-01-19 07:34:00,
2013-01-19 02:37:00,30.7,20.0,30.45,NNW,334,2.2,2.2,64,0.00,,---,0.00,VWS V14.01,2013-01-19 07:37:00,
2013-01-19 02:38:00,30.7,20.0,30.45,NNW,334,2.2,2.2,64,0.00,,---,0.00,VWS V14.01,2013-01-19 07:38:00,
2013-01-19 02:39:00,30.7,19.6,30.45,NNW,334,0.0,2.2,63,0.00,,---,0.00,VWS V14.01,2013-01-19 07:39:00,
2013-01-19 02:42:00,30.7,19.6,30.45,NNW,334,0.0,0.0,63,0.00,,---,0.00,VWS V14.01,2013-01-19 07:42:00,
2013-01-19 02:43:00,30.7,19.6,30.45,NNW,334,0.0,0.0,63,0.00,,---,0.00,VWS V14.01,2013-01-19 07:43:00,
2013-01-19 02:44:00,30.7,19.6,30.45,NNW,334,0.0,0.0,63,0.00,,---,0.00,VWS V14.01,2013-01-19 07:44:00,
2013-01-19 02:47:00,30.9,19.8,30.45,NNW,334,0.0,0.0,63,0.00,,---,0.00,VWS V14.01,2013-01-19 07:47:00,
2013-01-19 02:48:00,30.9,19.8,30.45,NNW,334,0.0,0.0,63,0.00,,---,0.00,VWS V14.01,2013-01-19 07:48:00,
2013-01-19 02:49:00,30.9,19.8,30.45,NNW,334,0.0,0.0,63,0.00,,---,0.00,VWS V14.01,2013-01-19 07:49:00,
2013-01-19 02:53:00,30.9,19.5,30.45,NNW,334,0.0,0.0,62,0.00,,---,0.00,VWS V14.01,2013-01-19 07:53:00,
2013-01-19 02:54:00,30.9,19.5,30.45,NNW,334,0.0,0.0,62,0.00,,---,0.00,VWS V14.01,2013-01-19 07:54:00,
2013-01-19 02:58:00,30.6,19.1,30.45,NNW,334,0.0,0.0,62,0.00,,---,0.00,VWS V14.01,2013-01-19 07:58:00,
2013-01-19 02:59:00,30.6,19.1,30.45,NNW,334,0.0,0.0,62,0.00,,---,0.00,VWS V14.01,2013-01-19 07:59:00,
2013-01-19 03:03:00,30.4,18.9,30.45,NNW,334,2.2,3.1,62,0.00,,---,0.00,VWS V14.01,2013-01-19 08:03:00,
2013-01-19 03:04:00,30.4,18.9,30.45,NNW,334,2.2,2.2,62,0.00,,---,0.00,VWS V14.01,2013-01-19 08:04:00,
2013-01-19 03:08:00,30.4,19.3,30.45,NNW,334,2.7,2.7,63,0.00,,---,0.00,VWS V14.01,2013-01-19 08:08:00,
2013-01-19 03:09:00,30.4,19.3,30.45,NNW,334,4.5,4.5,63,0.00,,---,0.00,VWS V14.01,2013-01-19 08:09:00,
2013-01-19 03:13:00,30.4,19.7,30.45,NNW,334,2.7,2.7,64,0.00,,---,0.00,VWS V14.01,2013-01-19 08:13:00,
2013-01-19 03:14:00,30.4,19.7,30.45,NNW,334,2.7,2.7,64,0.00,,---,0.00,VWS V14.01,2013-01-19 08:14:00,
2013-01-19 03:18:00,30.4,19.7,30.45,NNW,334,0.0,0.0,64,0.00,,---,0.00,VWS V14.01,2013-01-19 08:18:00,
2013-01-19 03:19:00,30.4,19.7,30.45,NNW,334,0.0,0.0,64,0.00,,---,0.00,VWS V14.01,2013-01-19 08:19:00,
2013-01-19 03:23:00,30.7,20.4,30.45,NNW,334,2.7,2.7,65,0.00,,---,0.00,VWS V14.01,2013-01-19 08:23:00,
2013-01-19 03:24:00,30.7,20.4,30.45,NNW,334,2.7,2.7,65,0.00,,---,0.00,VWS V14.01,2013-01-19 08:24:00,
2013-01-19 03:28:00,30.7,20.4,30.45,NNW,334,2.2,2.2,65,0.00,,---,0.00,VWS V14.01,2013-01-19 08:28:00,
2013-01-19 03:29:00,30.7,20.4,30.45,NNW,334,0.0,2.7,65,0.00,,---,0.00,VWS V14.01,2013-01-19 08:29:00,
2013-01-19 03:33:00,30.7,20.4,30.45,NNW,334,0.0,0.0,65,0.00,,---,0.00,VWS V14.01,2013-01-19 08:33:00,
2013-01-19 03:34:00,30.7,20.4,30.45,NNW,334,0.0,0.0,65,0.00,,---,0.00,VWS V14.01,2013-01-19 08:34:00,
2013-01-19 03:35:00,30.7,20.4,30.45,NNW,334,0.0,0.0,65,0.00,,---,0.00,VWS V14.01,2013-01-19 08:35:00,
2013-01-19 03:38:00,30.6,20.2,30.45,NNW,334,0.0,0.0,65,0.00,,---,0.00,VWS V14.01,2013-01-19 08:38:00,
2013-01-19 03:39:00,30.6,20.6,30.45,NNW,334,0.0,0.0,66,0.00,,---,0.00,VWS V14.01,2013-01-19 08:39:00,
2013-01-19 03:40:00,30.6,20.6,30.45,NNW,334,0.0,0.0,66,0.00,,---,0.00,VWS V14.01,2013-01-19 08:40:00,
2013-01-19 03:43:00,30.6,20.6,30.45,NNW,334,3.1,3.1,66,0.00,,---,0.00,VWS V14.01,2013-01-19 08:43:00,
2013-01-19 03:44:00,30.6,20.6,30.45,NNW,334,3.1,4.0,66,0.00,,---,0.00,VWS V14.01,2013-01-19 08:44:00,
2013-01-19 03:45:00,30.6,20.6,30.45,NNW,334,3.6,3.6,66,0.00,,---,0.00,VWS V14.01,2013-01-19 08:45:00,
2013-01-19 03:48:00,30.6,20.6,30.45,NNW,342,4.0,4.0,66,0.00,,---,0.00,VWS V14.01,2013-01-19 08:48:00,
2013-01-19 03:49:00,30.6,20.6,30.45,NNW,337,4.0,4.0,66,0.00,,---,0.00,VWS V14.01,2013-01-19 08:49:00,
2013-01-19 03:50:00,30.6,20.6,30.45,NNW,337,2.2,2.2,66,0.00,,---,0.00,VWS V14.01,2013-01-19 08:50:00,
2013-01-19 03:53:00,30.6,20.6,30.45,NNW,337,0.0,2.7,66,0.00,,---,0.00,VWS V14.01,2013-01-19 08:53:00,
2013-01-19 03:54:00,30.6,20.6,30.45,NNW,337,0.0,0.0,66,0.00,,---,0.00,VWS V14.01,2013-01-19 08:54:00,
2013-01-19 03:55:00,30.6,20.6,30.45,NNW,337,0.0,0.0,66,0.00,,---,0.00,VWS V14.01,2013-01-19 08:55:00,
2013-01-19 03:58:00,30.7,21.4,30.45,NNW,337,2.7,4.9,68,0.00,,---,0.00,VWS V14.01,2013-01-19 08:58:00,
2013-01-19 03:59:00,30.7,21.4,30.45,North,350,3.1,4.9,68,0.00,,---,0.00,VWS V14.01,2013-01-19 08:59:00,
2013-01-19 04:00:00,30.7,21.4,30.45,North,350,3.1,4.0,68,0.00,,---,0.00,VWS V14.01,2013-01-19 09:00:00,
2013-01-19 04:03:00,30.9,21.6,30.45,NNW,331,4.0,4.0,68,0.00,,---,0.00,VWS V14.01,2013-01-19 09:03:00,
2013-01-19 04:04:00,30.9,21.6,30.45,NNW,331,4.0,4.0,68,0.00,,---,0.00,VWS V14.01,2013-01-19 09:04:00,
2013-01-19 04:05:00,30.9,21.6,30.45,North,350,2.7,3.1,68,0.00,,---,0.00,VWS V14.01,2013-01-19 09:05:00,
2013-01-19 04:09:00,31.1,21.8,30.45,North,353,3.1,3.1,68,0.00,,---,0.00,VWS V14.01,2013-01-19 09:09:00,
2013-01-19 04:10:00,31.1,21.8,30.45,NNW,329,3.1,3.1,68,0.00,,---,0.00,VWS V14.01,2013-01-19 09:10:00,
2013-01-19 04:14:00,31.1,22.1,30.42,NNW,329,2.7,3.1,69,0.00,,---,0.00,VWS V14.01,2013-01-19 09:14:00,
2013-01-19 04:15:00,31.1,22.1,30.42,NNW,329,0.0,2.2,69,0.00,,---,0.00,VWS V14.01,2013-01-19 09:15:00,
2013-01-19 04:19:00,31.1,21.8,30.42,NNW,329,0.0,0.0,68,0.00,,---,0.00,VWS V14.01,2013-01-19 09:19:00,
2013-01-19 04:20:00,31.1,21.8,30.42,NNW,329,0.0,0.0,68,0.00,,---,0.00,VWS V14.01,2013-01-19 09:20:00,
2013-01-19 04:24:00,31.1,21.8,30.42,NNW,329,0.0,0.0,68,0.00,,---,0.00,VWS V14.01,2013-01-19 09:24:00,
2013-01-19 04:25:00,31.1,21.8,30.42,NNW,329,0.0,0.0,68,0.00,,---,0.00,VWS V14.01,2013-01-19 09:25:00,
2013-01-19 04:29:00,30.7,21.1,30.42,NNW,329,0.0,0.0,67,0.00,,---,0.00,VWS V14.01,2013-01-19 09:29:00,
2013-01-19 04:30:00,30.6,20.9,30.42,NNW,329,0.0,0.0,67,0.00,,---,0.00,VWS V14.01,2013-01-19 09:30:00,
2013-01-19 04:34:00,30.2,20.6,30.42,NNW,329,0.0,0.0,67,0.00,,---,0.00,VWS V14.01,2013-01-19 09:34:00,
2013-01-19 04:35:00,30.2,20.6,30.42,NNW,329,0.0,0.0,67,0.00,,---,0.00,VWS V14.01,2013-01-19 09:35:00,
2013-01-19 04:39:00,30.0,20.4,30.42,NNW,329,0.0,0.0,67,0.00,,---,0.00,VWS V14.01,2013-01-19 09:39:00,
2013-01-19 04:40:00,30.0,20.4,30.42,NNW,329,0.0,0.0,67,0.00,,---,0.00,VWS V14.01,2013-01-19 09:40:00,
2013-01-19 04:44:00,29.8,20.6,30.42,NNW,329,0.0,0.0,68,0.00,,---,0.00,VWS V14.01,2013-01-19 09:44:00,
2013-01-19 04:45:00,29.8,20.6,30.42,NNW,329,0.0,0.0,68,0.00,,---,0.00,VWS V14.01,2013-01-19 09:45:00,
2013-01-19 04:49:00,29.8,20.6,30.42,NNW,329,3.1,3.1,68,0.00,,---,0.00,VWS V14.01,2013-01-19 09:49:00,
2013-01-19 04:50:00,29.8,20.9,30.42,NNW,329,3.1,3.1,69,0.00,,---,0.00,VWS V14.01,2013-01-19 09:50:00,
2013-01-19 04:54:00,30.0,21.1,30.42,NNW,329,0.0,0.0,69,0.00,,---,0.00,VWS V14.01,2013-01-19 09:54:00,
2013-01-19 04:55:00,30.0,21.1,30.42,NNW,329,0.0,0.0,69,0.00,,---,0.00,VWS V14.01,2013-01-19 09:55:00,
2013-01-19 04:59:00,30.0,21.1,30.42,NNW,329,0.0,0.0,69,0.00,,---,0.00,VWS V14.01,2013-01-19 09:59:00,
2013-01-19 05:00:00,30.0,21.1,30.42,NNW,329,0.0,0.0,69,0.00,,---,0.00,VWS V14.01,2013-01-19 10:00:00,
2013-01-19 05:04:00,30.0,21.1,30.42,NNW,329,0.0,0.0,69,0.00,,---,0.00,VWS V14.01,2013-01-19 10:04:00,
2013-01-19 05:05:00,30.0,21.1,30.42,NNW,329,0.0,0.0,69,0.00,,---,0.00,VWS V14.01,2013-01-19 10:05:00,
2013-01-19 05:09:00,29.8,20.9,30.42,NNW,329,0.0,0.0,69,0.00,,---,0.00,VWS V14.01,2013-01-19 10:09:00,
2013-01-19 05:10:00,29.8,20.9,30.42,NNW,329,0.0,0.0,69,0.00,,---,0.00,VWS V14.01,2013-01-19 10:10:00,
2013-01-19 05:14:00,29.8,20.6,30.42,NNW,329,0.0,0.0,68,0.00,,---,0.00,VWS V14.01,2013-01-19 10:14:00,
2013-01-19 05:15:00,29.8,20.6,30.42,NNW,329,0.0,0.0,68,0.00,,---,0.00,VWS V14.01,2013-01-19 10:15:00,
2013-01-19 05:19:00,29.7,20.4,30.42,NNW,329,0.0,0.0,68,0.00,,---,0.00,VWS V14.01,2013-01-19 10:19:00,
2013-01-19 05:20:00,29.7,20.4,30.42,NNW,329,0.0,0.0,68,0.00,,---,0.00,VWS V14.01,2013-01-19 10:20:00,
2013-01-19 05:21:00,29.7,20.4,30.42,NNW,329,0.0,0.0,68,0.00,,---,0.00,VWS V14.01,2013-01-19 10:21:00,
2013-01-19 05:24:00,29.7,20.8,30.45,NNW,340,3.6,3.6,69,0.00,,---,0.00,VWS V14.01,2013-01-19 10:24:00,
2013-01-19 05:25:00,29.7,20.8,30.45,NNW,330,2.7,2.7,69,0.00,,---,0.00,VWS V14.01,2013-01-19 10:25:00,
2013-01-19 05:26:00,29.7,20.8,30.45,NNW,330,2.2,2.7,69,0.00,,---,0.00,VWS V14.01,2013-01-19 10:26:00,
2013-01-19 05:29:00,29.8,21.3,30.45,NNW,330,0.0,2.7,70,0.00,,---,0.00,VWS V14.01,2013-01-19 10:29:00,
2013-01-19 05:30:00,29.8,21.3,30.45,NNW,330,0.0,0.0,70,0.00,,---,0.00,VWS V14.01,2013-01-19 10:30:00,
2013-01-19 05:31:00,29.8,21.3,30.45,NNW,330,0.0,0.0,70,0.00,,---,0.00,VWS V14.01,2013-01-19 10:31:00,
2013-01-19 05:34:00,29.8,20.9,30.42,NNW,330,0.0,0.0,69,0.00,,---,0.00,VWS V14.01,2013-01-19 10:34:00,
2013-01-19 05:35:00,29.8,20.9,30.42,NNW,330,0.0,0.0,69,0.00,,---,0.00,VWS V14.01,2013-01-19 10:35:00,
2013-01-19 05:36:00,29.8,20.9,30.42,NNW,330,0.0,0.0,69,0.00,,---,0.00,VWS V14.01,2013-01-19 10:36:00,
2013-01-19 05:39:00,29.8,20.9,30.42,NNW,330,0.0,0.0,69,0.00,,---,0.00,VWS V14.01,2013-01-19 10:39:00,
2013-01-19 05:40:00,29.8,20.9,30.42,NNW,330,0.0,0.0,69,0.00,,---,0.00,VWS V14.01,2013-01-19 10:40:00,
2013-01-19 05:41:00,29.8,20.9,30.42,NNW,330,0.0,0.0,69,0.00,,---,0.00,VWS V14.01,2013-01-19 10:41:00,
2013-01-19 05:44:00,29.7,20.8,30.42,NNW,330,0.0,0.0,69,0.00,,---,0.00,VWS V14.01,2013-01-19 10:44:00,
2013-01-19 05:45:00,29.7,20.8,30.42,NNW,330,0.0,0.0,69,0.00,,---,0.00,VWS V14.01,2013-01-19 10:45:00,
2013-01-19 05:46:00,29.7,20.8,30.42,NNW,330,0.0,0.0,69,0.00,,---,0.00,VWS V14.01,2013-01-19 10:46:00,
2013-01-19 05:50:00,29.7,20.8,30.42,NNW,334,3.6,3.6,69,0.00,,---,0.00,VWS V14.01,2013-01-19 10:50:00,
2013-01-19 05:51:00,29.7,21.1,30.42,NNW,333,3.1,3.1,70,0.00,,---,0.00,VWS V14.01,2013-01-19 10:51:00,
2013-01-19 05:52:00,29.7,21.1,30.42,NNW,333,2.2,2.2,70,0.00,,---,0.00,VWS V14.01,2013-01-19 10:52:00,
2013-01-19 05:55:00,29.7,21.1,30.42,NNW,342,3.1,4.0,70,0.00,,---,0.00,VWS V14.01,2013-01-19 10:55:00,
2013-01-19 05:56:00,29.7,21.4,30.42,NNW,341,4.0,4.0,71,0.00,,---,0.00,VWS V14.01,2013-01-19 10:56:00,
2013-01-19 05:57:00,29.7,21.4,30.42,NNW,341,4.0,4.0,71,0.00,,---,0.00,VWS V14.01,2013-01-19 10:57:00,
2013-01-19 06:00:00,30.0,22.1,30.42,NNW,337,2.7,2.7,72,0.00,,---,0.00,VWS V14.01,2013-01-19 11:00:00,
2013-01-19 06:02:00,30.2,22.3,30.42,NNW,337,2.2,2.2,72,0.00,,---,0.00,VWS V14.01,2013-01-19 11:02:00,
2013-01-19 06:05:00,30.2,22.3,30.42,NNW,337,0.0,0.0,72,0.00,,---,0.00,VWS V14.01,2013-01-19 11:05:00,
2013-01-19 06:07:00,30.2,21.9,30.42,NNW,337,0.0,0.0,71,0.00,,---,0.00,VWS V14.01,2013-01-19 11:07:00,
2013-01-19 06:10:00,30.2,21.9,30.42,NNW,337,0.0,0.0,71,0.00,,---,0.00,VWS V14.01,2013-01-19 11:10:00,
2013-01-19 06:13:00,30.0,21.8,30.42,NNW,337,0.0,0.0,71,0.00,,---,0.00,VWS V14.01,2013-01-19 11:13:00,
2013-01-19 07:47:00,32.2,25.5,30.42,NW,321,3.1,3.6,76,0.00,,---,0.00,VWS V14.01,2013-01-19 12:47:00,
2013-01-19 07:48:00,32.2,25.5,30.42,NNW,344,3.6,3.6,76,0.00,,---,0.00,VWS V14.01,2013-01-19 12:48:00,
2013-01-19 07:53:00,32.7,26.3,30.42,NW,318,5.8,5.8,77,0.00,,---,0.00,VWS V14.01,2013-01-19 12:53:00,
2013-01-19 07:58:00,33.3,26.8,30.42,NW,320,3.6,3.6,77,0.00,,---,0.00,VWS V14.01,2013-01-19 12:58:00,
2013-01-19 08:03:00,33.6,27.2,30.42,NW,314,2.7,2.7,77,0.00,,---,0.00,VWS V14.01,2013-01-19 13:03:00,
2013-01-19 08:08:00,34.0,27.2,30.42,North,357,3.1,3.6,76,0.00,,---,0.00,VWS V14.01,2013-01-19 13:08:00,
2013-01-19 08:13:00,34.5,27.8,30.42,NNW,333,3.6,3.6,76,0.00,,---,0.00,VWS V14.01,2013-01-19 13:13:00,
2013-01-19 08:18:00,35.1,28.6,30.42,North,353,5.8,5.8,77,0.00,,---,0.00,VWS V14.01,2013-01-19 13:18:00,
2013-01-19 08:23:00,35.6,27.5,30.42,NNW,329,4.0,4.0,72,0.00,,---,0.00,VWS V14.01,2013-01-19 13:23:00,
2013-01-19 08:28:00,36.1,25.9,30.42,NNW,342,5.4,5.4,66,0.00,,---,0.00,VWS V14.01,2013-01-19 13:28:00,
2013-01-19 08:33:00,36.7,24.1,30.42,NNW,339,6.3,7.6,60,0.00,,---,0.00,VWS V14.01,2013-01-19 13:33:00,
2013-01-19 08:38:00,37.6,21.6,30.42,NNW,330,4.9,5.4,52,0.00,,---,0.00,VWS V14.01,2013-01-19 13:38:00,
2013-01-19 08:43:00,38.3,19.9,30.42,NNW,346,3.6,3.6,47,0.00,,---,0.00,VWS V14.01,2013-01-19 13:43:00,
2013-01-19 08:44:00,38.3,19.9,30.42,NNW,327,5.8,5.8,47,0.00,,---,0.00,VWS V14.01,2013-01-19 13:44:00,
2013-01-19 08:48:00,38.8,18.3,30.42,North,10,2.7,5.4,43,0.00,,---,0.00,VWS V14.01,2013-01-19 13:48:00,
2013-01-19 08:49:00,38.8,18.3,30.42,North,10,2.7,5.4,43,0.00,,---,0.00,VWS V14.01,2013-01-19 13:49:00,
2013-01-19 08:53:00,39.2,19.1,30.42,NNE,15,5.4,5.4,44,0.00,,---,0.00,VWS V14.01,2013-01-19 13:53:00,
2013-01-19 08:54:00,39.2,19.1,30.42,North,353,7.6,7.6,44,0.00,,---,0.00,VWS V14.01,2013-01-19 13:54:00,
2013-01-19 08:58:00,39.9,18.7,30.42,NE,41,5.4,5.4,42,0.00,,---,0.00,VWS V14.01,2013-01-19 13:58:00,
2013-01-19 08:59:00,39.9,18.7,30.42,NE,41,5.4,5.4,42,0.00,,---,0.00,VWS V14.01,2013-01-19 13:59:00,
2013-01-19 09:04:00,40.3,18.5,30.45,NNW,334,2.7,4.5,41,0.00,,---,0.00,VWS V14.01,2013-01-19 14:04:00,
2013-01-19 09:09:00,40.6,18.8,30.45,NNW,333,6.3,6.3,41,0.00,,---,0.00,VWS V14.01,2013-01-19 14:09:00,
2013-01-19 09:14:00,41.2,18.7,30.45,NNW,340,4.9,4.9,40,0.00,,---,0.00,VWS V14.01,2013-01-19 14:14:00,
2013-01-19 09:19:00,41.7,19.2,30.45,NE,41,7.6,7.6,40,0.00,,---,0.00,VWS V14.01,2013-01-19 14:19:00,
2013-01-19 09:24:00,42.4,19.8,30.45,North,353,0.0,0.0,40,0.00,,---,0.00,VWS V14.01,2013-01-19 14:24:00,
2013-01-19 09:25:00,42.4,19.8,30.45,North,353,0.0,0.0,40,0.00,,---,0.00,VWS V14.01,2013-01-19 14:25:00,
2013-01-19 09:29:00,42.8,19.6,30.45,NNW,345,4.9,5.8,39,0.00,,---,0.00,VWS V14.01,2013-01-19 14:29:00,
2013-01-19 09:30:00,43.0,19.7,30.45,NNW,341,5.4,5.4,39,0.00,,---,0.00,VWS V14.01,2013-01-19 14:30:00,
2013-01-19 09:34:00,43.5,20.2,30.42,NW,307,0.0,0.0,39,0.00,,---,0.00,VWS V14.01,2013-01-19 14:34:00,
2013-01-19 09:35:00,43.5,20.2,30.42,NNW,328,5.4,5.4,39,0.00,,---,0.00,VWS V14.01,2013-01-19 14:35:00,
2013-01-19 09:39:00,44.1,20.7,30.42,NW,325,5.8,5.8,39,0.00,,---,0.00,VWS V14.01,2013-01-19 14:39:00,
2013-01-19 09:40:00,44.2,20.9,30.42,NNW,331,5.8,5.8,39,0.00,,---,0.00,VWS V14.01,2013-01-19 14:40:00,
2013-01-19 09:44:00,44.6,21.2,30.42,NNE,12,2.2,3.1,39,0.00,,---,0.00,VWS V14.01,2013-01-19 14:44:00,
2013-01-19 09:45:00,44.6,21.2,30.42,NNE,12,2.2,2.2,39,0.00,,---,0.00,VWS V14.01,2013-01-19 14:45:00,
2013-01-19 09:49:00,45.3,21.8,30.42,NNE,28,4.9,4.9,39,0.00,,---,0.00,VWS V14.01,2013-01-19 14:49:00,
2013-01-19 09:50:00,45.5,22.0,30.42,NNW,342,0.0,4.9,39,0.00,,---,0.00,VWS V14.01,2013-01-19 14:50:00,
2013-01-19 09:54:00,45.5,22.0,30.45,NNW,341,4.0,4.0,39,0.00,,---,0.00,VWS V14.01,2013-01-19 14:54:00,
2013-01-19 09:55:00,45.5,22.0,30.45,NNW,340,6.7,6.7,39,0.00,,---,0.00,VWS V14.01,2013-01-19 14:55:00,
2013-01-19 09:59:00,46.2,22.6,30.45,North,353,4.9,4.9,39,0.00,,---,0.00,VWS V14.01,2013-01-19 14:59:00,
2013-01-19 10:00:00,46.2,22.6,30.45,NNW,340,5.4,5.4,39,0.00,,---,0.00,VWS V14.01,2013-01-19 15:00:00,
2013-01-19 10:04:00,46.4,22.2,30.45,North,353,4.0,4.0,38,0.00,,---,0.00,VWS V14.01,2013-01-19 15:04:00,
2013-01-19 10:05:00,46.6,22.4,30.45,NNW,342,4.0,4.0,38,0.00,,---,0.00,VWS V14.01,2013-01-19 15:05:00,
2013-01-19 10:09:00,47.1,22.8,30.45,West,278,3.1,3.1,38,0.00,,---,0.00,VWS V14.01,2013-01-19 15:09:00,
2013-01-19 10:10:00,47.1,22.8,30.45,West,278,3.1,3.1,38,0.00,,---,0.00,VWS V14.01,2013-01-19 15:10:00,
2013-01-19 10:14:00,47.3,23.0,30.45,NNE,31,3.6,3.6,38,0.00,,---,0.00,VWS V14.01,2013-01-19 15:14:00,
2013-01-19 10:15:00,47.5,23.8,30.45,NNW,345,3.1,3.1,39,0.00,,---,0.00,VWS V14.01,2013-01-19 15:15:00,
2013-01-19 10:19:00,48.0,23.6,30.45,NNE,21,2.2,2.2,38,0.00,,---,0.00,VWS V14.01,2013-01-19 15:19:00,
2013-01-19 10:20:00,48.0,23.6,30.45,WNW,303,3.1,3.1,38,0.00,,---,0.00,VWS V14.01,2013-01-19 15:20:00,
2013-01-19 10:24:00,48.4,24.0,30.45,NW,320,4.0,4.0,38,0.00,,---,0.00,VWS V14.01,2013-01-19 15:24:00,
2013-01-19 10:25:00,48.4,24.0,30.45,NNW,338,2.7,3.6,38,0.00,,---,0.00,VWS V14.01,2013-01-19 15:25:00,
2013-01-19 10:29:00,48.6,24.1,30.45,NNW,334,2.7,2.7,38,0.00,,---,0.00,VWS V14.01,2013-01-19 15:29:00,
2013-01-19 10:30:00,48.7,24.3,30.45,North,353,3.6,3.6,38,0.00,,---,0.00,VWS V14.01,2013-01-19 15:30:00,
2013-01-19 10:34:00,48.9,24.5,30.45,NW,323,4.9,5.4,38,0.00,,---,0.00,VWS V14.01,2013-01-19 15:34:00,
2013-01-19 10:35:00,48.9,24.5,30.45,NNW,345,2.7,4.9,38,0.00,,---,0.00,VWS V14.01,2013-01-19 15:35:00,
2013-01-19 10:39:00,48.9,24.5,30.45,NNE,17,0.0,2.7,38,0.00,,---,0.00,VWS V14.01,2013-01-19 15:39:00,
2013-01-19 10:40:00,48.9,24.5,30.45,North,11,4.9,4.9,38,0.00,,---,0.00,VWS V14.01,2013-01-19 15:40:00,
2013-01-19 10:44:00,49.1,24.6,30.45,NW,320,2.7,2.7,38,0.00,,---,0.00,VWS V14.01,2013-01-19 15:44:00,
2013-01-19 10:45:00,49.1,24.6,30.45,NW,320,2.7,2.7,38,0.00,,---,0.00,VWS V14.01,2013-01-19 15:45:00,
2013-01-19 10:49:00,48.9,24.5,30.45,NW,311,2.7,5.4,38,0.00,,---,0.00,VWS V14.01,2013-01-19 15:49:00,
2013-01-19 10:50:00,48.9,24.5,30.45,NW,326,2.2,5.4,38,0.00,,---,0.00,VWS V14.01,2013-01-19 15:50:00,
2013-01-19 10:55:00,48.9,24.5,30.42,NW,305,2.2,2.7,38,0.00,,---,0.00,VWS V14.01,2013-01-19 15:55:00,
2013-01-19 10:56:00,49.1,24.6,30.42,NW,318,3.1,3.1,38,0.00,,---,0.00,VWS V14.01,2013-01-19 15:56:00,
2013-01-19 11:00:00,49.1,24.6,30.42,East,100,3.1,5.4,38,0.00,,---,0.00,VWS V14.01,2013-01-19 16:00:00,
2013-01-19 11:01:00,49.3,24.8,30.42,NNE,12,3.1,3.1,38,0.00,,---,0.00,VWS V14.01,2013-01-19 16:01:00,
2013-01-19 11:05:00,49.6,25.1,30.42,NW,321,3.6,4.0,38,0.00,,---,0.00,VWS V14.01,2013-01-19 16:05:00,
2013-01-19 11:06:00,49.6,25.1,30.42,NNE,22,3.6,3.6,38,0.00,,---,0.00,VWS V14.01,2013-01-19 16:06:00,
2013-01-19 11:10:00,50.5,25.9,30.42,NNE,13,3.6,5.4,38,0.00,,---,0.00,VWS V14.01,2013-01-19 16:10:00,
2013-01-19 11:11:00,50.7,25.4,30.42,NNE,13,3.6,3.6,37,0.00,,---,0.00,VWS V14.01,2013-01-19 16:11:00,
2013-01-19 11:15:00,50.7,25.4,30.42,North,7,4.9,4.9,37,0.00,,---,0.00,VWS V14.01,2013-01-19 16:15:00,
2013-01-19 11:16:00,50.7,25.4,30.42,NNW,345,3.6,4.9,37,0.00,,---,0.00,VWS V14.01,2013-01-19 16:16:00,
2013-01-19 11:20:00,50.7,25.4,30.42,North,0,3.6,4.0,37,0.00,,---,0.00,VWS V14.01,2013-01-19 16:20:00,
2013-01-19 11:21:00,52.2,26.7,30.42,North,0,3.6,3.6,37,0.00,,---,0.00,VWS V14.01,2013-01-19 16:21:00,
2013-01-19 11:22:00,52.2,26.7,30.42,North,0,3.6,3.6,37,0.00,,---,0.00,VWS V14.01,2013-01-19 16:22:00,
2013-01-19 11:25:00,52.3,26.9,30.42,NNW,330,5.4,5.4,37,0.00,,---,0.00,VWS V14.01,2013-01-19 16:25:00,
2013-01-19 11:26:00,52.5,27.0,30.42,WNW,291,5.4,5.4,37,0.00,,---,0.00,VWS V14.01,2013-01-19 16:26:00,
2013-01-19 11:27:00,52.5,27.0,30.42,WNW,298,4.0,4.0,37,0.00,,---,0.00,VWS V14.01,2013-01-19 16:27:00,
2013-01-19 11:30:00,52.9,27.3,30.42,WNW,285,0.0,3.1,37,0.00,,---,0.00,VWS V14.01,2013-01-19 16:30:00,
2013-01-19 11:31:00,52.9,27.3,30.42,WNW,283,5.4,5.4,37,0.00,,---,0.00,VWS V14.01,2013-01-19 16:31:00,
2013-01-19 11:32:00,52.9,27.3,30.42,West,265,6.7,6.7,37,0.00,,---,0.00,VWS V14.01,2013-01-19 16:32:00,
2013-01-19 11:35:00,53.1,27.5,30.42,NW,326,5.8,5.8,37,0.00,,---,0.00,VWS V14.01,2013-01-19 16:35:00,
2013-01-19 11:37:00,53.1,27.5,30.39,North,353,8.1,8.1,37,0.00,,---,0.00,VWS V14.01,2013-01-19 16:37:00,
2013-01-19 11:40:00,53.1,27.5,30.39,NW,319,3.1,3.1,37,0.00,,---,0.00,VWS V14.01,2013-01-19 16:40:00,
2013-01-19 11:42:00,53.1,27.5,30.39,WNW,299,3.6,4.0,37,0.00,,---,0.00,VWS V14.01,2013-01-19 16:42:00,
2013-01-19 11:45:00,53.2,27.7,30.39,WNW,297,3.1,3.1,37,0.00,,---,0.00,VWS V14.01,2013-01-19 16:45:00,
2013-01-19 11:47:00,53.4,27.8,30.39,North,2,6.3,6.3,37,0.00,,---,0.00,VWS V14.01,2013-01-19 16:47:00,
2013-01-19 11:50:00,53.4,27.8,30.39,NNE,17,6.3,6.3,37,0.00,,---,0.00,VWS V14.01,2013-01-19 16:50:00,
2013-01-19 11:52:00,53.6,28.0,30.39,West,281,5.8,5.8,37,0.00,,---,0.00,VWS V14.01,2013-01-19 16:52:00,
2013-01-19 11:55:00,53.8,28.1,30.39,West,281,5.8,5.8,37,0.00,,---,0.00,VWS V14.01,2013-01-19 16:55:00,
2013-01-19 11:57:00,54.0,28.3,30.39,NNW,344,4.9,4.9,37,0.00,,---,0.00,VWS V14.01,2013-01-19 16:57:00,
2013-01-19 11:58:00,54.0,28.3,30.39,NNW,344,4.9,4.9,37,0.00,,---,0.00,VWS V14.01,2013-01-19 16:58:00,
2013-01-19 12:00:00,54.0,28.3,30.39,NNW,331,3.6,3.6,37,0.00,,---,0.00,VWS V14.01,2013-01-19 17:00:00,
2013-01-19 12:03:00,54.1,28.5,30.39,NE,43,2.7,4.0,37,0.00,,---,0.00,VWS V14.01,2013-01-19 17:03:00,
2013-01-19 12:05:00,54.1,28.5,30.36,ENE,60,5.4,5.4,37,0.00,,---,0.00,VWS V14.01,2013-01-19 17:05:00,
2013-01-19 12:08:00,54.5,28.8,30.36,NNW,348,2.7,7.6,37,0.00,,---,0.00,VWS V14.01,2013-01-19 17:08:00,
2013-01-19 12:10:00,54.5,28.8,30.36,West,261,2.7,2.7,37,0.00,,---,0.00,VWS V14.01,2013-01-19 17:10:00,
2013-01-19 12:13:00,55.4,28.9,30.36,NW,316,0.0,4.0,36,0.00,,---,0.00,VWS V14.01,2013-01-19 17:13:00,
2013-01-19 12:15:00,55.8,29.2,30.36,NNW,332,0.0,0.0,36,0.00,,---,0.00,VWS V14.01,2013-01-19 17:15:00,
2013-01-19 12:18:00,55.9,29.4,30.36,WNW,289,3.6,4.0,36,0.00,,---,0.00,VWS V14.01,2013-01-19 17:18:00,
2013-01-19 12:20:00,56.1,29.5,30.36,NW,311,0.0,2.7,36,0.00,,---,0.00,VWS V14.01,2013-01-19 17:20:00,
2013-01-19 12:23:00,56.1,29.5,30.36,NNW,331,0.0,3.1,36,0.00,,---,0.00,VWS V14.01,2013-01-19 17:23:00,
2013-01-19 12:25:00,56.3,29.7,30.36,NW,320,0.0,0.0,36,0.00,,---,0.00,VWS V14.01,2013-01-19 17:25:00,
2013-01-19 12:28:00,56.3,29.7,30.36,NNW,338,0.0,0.0,36,0.00,,---,0.00,VWS V14.01,2013-01-19 17:28:00,
2013-01-19 12:30:00,56.5,29.9,30.36,NNW,328,3.6,5.4,36,0.00,,---,0.00,VWS V14.01,2013-01-19 17:30:00,
2013-01-19 12:34:00,56.3,29.7,30.36,NNW,341,0.0,2.7,36,0.00,,---,0.00,VWS V14.01,2013-01-19 17:34:00,
2013-01-19 12:36:00,56.3,29.7,30.33,NNW,332,0.0,0.0,36,0.00,,---,0.00,VWS V14.01,2013-01-19 17:36:00,
2013-01-19 12:38:00,56.3,29.7,30.33,NNE,15,3.1,3.1,36,0.00,,---,0.00,VWS V14.01,2013-01-19 17:38:00,
2013-01-19 12:41:00,56.5,29.9,30.33,NNW,348,6.3,6.3,36,0.00,,---,0.00,VWS V14.01,2013-01-19 17:41:00,
2013-01-19 12:43:00,56.7,30.0,30.33,WNW,290,4.0,4.0,36,0.00,,---,0.00,VWS V14.01,2013-01-19 17:43:00,
2013-01-19 12:46:00,56.8,30.2,30.33,North,7,4.0,4.0,36,0.00,,---,0.00,VWS V14.01,2013-01-19 17:46:00,
2013-01-19 12:49:00,56.8,30.2,30.33,NNE,31,3.1,4.0,36,0.00,,---,0.00,VWS V14.01,2013-01-19 17:49:00,
2013-01-19 12:51:00,56.8,30.2,30.33,NE,47,0.0,0.0,36,0.00,,---,0.00,VWS V14.01,2013-01-19 17:51:00,
2013-01-19 12:54:00,57.0,30.4,30.33,NNW,340,4.0,4.0,36,0.00,,---,0.00,VWS V14.01,2013-01-19 17:54:00,
2013-01-19 12:56:00,57.0,30.4,30.33,NNW,346,4.0,4.0,36,0.00,,---,0.00,VWS V14.01,2013-01-19 17:56:00,
2013-01-19 12:59:00,57.0,30.4,30.33,NNW,341,2.7,2.7,36,0.00,,---,0.00,VWS V14.01,2013-01-19 17:59:00,
2013-01-19 13:02:00,56.8,30.2,30.33,NW,325,0.0,0.0,36,0.00,,---,0.00,VWS V14.01,2013-01-19 18:02:00,
2013-01-19 13:04:00,56.8,30.2,30.33,West,271,3.1,3.1,36,0.00,,---,0.00,VWS V14.01,2013-01-19 18:04:00,
2013-01-19 13:07:00,56.8,30.2,30.33,NNW,334,5.4,6.7,36,0.00,,---,0.00,VWS V14.01,2013-01-19 18:07:00,
2013-01-19 13:10:00,57.0,30.4,30.33,West,271,0.0,3.1,36,0.00,,---,0.00,VWS V14.01,2013-01-19 18:10:00,
2013-01-19 13:12:00,57.0,30.4,30.33,North,357,4.0,4.0,36,0.00,,---,0.00,VWS V14.01,2013-01-19 18:12:00,
2013-01-19 13:15:00,57.0,30.4,30.33,NNE,21,0.0,0.0,36,0.00,,---,0.00,VWS V14.01,2013-01-19 18:15:00,
2013-01-19 13:17:00,57.0,30.4,30.33,WNW,293,2.2,2.2,36,0.00,,---,0.00,VWS V14.01,2013-01-19 18:17:00,
2013-01-19 13:20:00,57.9,31.1,30.30,WNW,286,0.0,4.0,36,0.00,,---,0.00,VWS V14.01,2013-01-19 18:20:00,
2013-01-19 13:22:00,57.9,31.1,30.30,WNW,286,0.0,0.0,36,0.00,,---,0.00,VWS V14.01,2013-01-19 18:22:00,
2013-01-19 13:25:00,58.1,31.3,30.30,SW,214,2.7,2.7,36,0.00,,---,0.00,VWS V14.01,2013-01-19 18:25:00,
2013-01-19 13:27:00,58.1,31.3,30.30,North,7,0.0,0.0,36,0.00,,---,0.00,VWS V14.01,2013-01-19 18:27:00,
2013-01-19 13:30:00,58.3,31.5,30.30,NW,326,5.4,5.4,36,0.00,,---,0.00,VWS V14.01,2013-01-19 18:30:00,
2013-01-19 13:32:00,58.3,31.5,30.30,NNW,328,0.0,2.7,36,0.00,,---,0.00,VWS V14.01,2013-01-19 18:32:00,
2013-01-19 13:35:00,58.1,31.3,30.30,NW,325,0.0,0.0,36,0.00,,---,0.00,VWS V14.01,2013-01-19 18:35:00,
2013-01-19 13:37:00,57.9,31.1,30.30,WSW,255,2.7,2.7,36,0.00,,---,0.00,VWS V14.01,2013-01-19 18:37:00,
2013-01-19 13:40:00,57.9,31.1,30.30,WNW,299,0.0,0.0,36,0.00,,---,0.00,VWS V14.01,2013-01-19 18:40:00,
2013-01-19 13:42:00,57.9,31.1,30.30,NW,308,0.0,0.0,36,0.00,,---,0.00,VWS V14.01,2013-01-19 18:42:00,
2013-01-19 13:46:00,57.9,31.1,30.30,NW,319,0.0,2.7,36,0.00,,---,0.00,VWS V14.01,2013-01-19 18:46:00,
2013-01-19 13:47:00,57.9,31.1,30.30,WNW,291,0.0,0.0,36,0.00,,---,0.00,VWS V14.01,2013-01-19 18:47:00,
2013-01-19 13:51:00,57.9,31.1,30.30,WSW,246,4.0,4.0,36,0.00,,---,0.00,VWS V14.01,2013-01-19 18:51:00,
2013-01-19 13:52:00,57.9,31.1,30.30,WNW,292,3.1,3.1,36,0.00,,---,0.00,VWS V14.01,2013-01-19 18:52:00,
2013-01-19 13:56:00,57.9,31.1,30.30,WNW,292,0.0,0.0,36,0.00,,---,0.00,VWS V14.01,2013-01-19 18:56:00,
2013-01-19 13:57:00,57.7,31.0,30.30,WNW,288,0.0,0.0,36,0.00,,---,0.00,VWS V14.01,2013-01-19 18:57:00,
2013-01-19 14:02:00,57.9,31.1,30.30,SW,219,0.0,0.0,36,0.00,,---,0.00,VWS V14.01,2013-01-19 19:02:00,
2013-01-19 14:03:00,57.9,31.1,30.30,West,277,0.0,0.0,36,0.00,,---,0.00,VWS V14.01,2013-01-19 19:03:00,
2013-01-19 14:07:00,58.1,31.3,30.30,West,273,0.0,0.0,36,0.00,,---,0.00,VWS V14.01,2013-01-19 19:07:00,
2013-01-19 14:08:00,57.9,31.1,30.30,SW,234,0.0,3.6,36,0.00,,---,0.00,VWS V14.01,2013-01-19 19:08:00,
2013-01-19 14:12:00,57.9,31.1,30.30,WNW,283,2.2,4.0,36,0.00,,---,0.00,VWS V14.01,2013-01-19 19:12:00,
2013-01-19 14:14:00,58.1,31.3,30.30,NW,306,3.6,4.0,36,0.00,,---,0.00,VWS V14.01,2013-01-19 19:14:00,
2013-01-19 14:17:00,58.1,31.3,30.30,WSW,257,2.2,4.0,36,0.00,,---,0.00,VWS V14.01,2013-01-19 19:17:00,
2013-01-19 14:19:00,58.1,31.3,30.30,WSW,257,0.0,0.0,36,0.00,,---,0.00,VWS V14.01,2013-01-19 19:19:00,
2013-01-19 14:22:00,58.6,31.8,30.27,ESE,117,0.0,0.0,36,0.00,,---,0.00,VWS V14.01,2013-01-19 19:22:00,
2013-01-19 14:24:00,58.6,31.8,30.27,North,353,3.6,3.6,36,0.00,,---,0.00,VWS V14.01,2013-01-19 19:24:00,
2013-01-19 14:27:00,58.8,32.0,30.27,ESE,123,0.0,2.2,36,0.00,,---,0.00,VWS V14.01,2013-01-19 19:27:00,
2013-01-19 14:29:00,58.8,32.0,30.27,NNW,333,0.0,0.0,36,0.00,,---,0.00,VWS V14.01,2013-01-19 19:29:00,
2013-01-19 14:32:00,59.0,32.1,30.27,North,353,3.6,3.6,36,0.00,,---,0.00,VWS V14.01,2013-01-19 19:32:00,
2013-01-19 14:34:00,59.0,32.1,30.27,NW,316,3.6,4.0,36,0.00,,---,0.00,VWS V14.01,2013-01-19 19:34:00,
2013-01-19 14:37:00,59.5,32.6,30.27,NNE,29,5.8,5.8,36,0.00,,---,0.00,VWS V14.01,2013-01-19 19:37:00,
2013-01-19 14:39:00,59.5,32.6,30.27,WNW,294,3.6,4.0,36,0.00,,---,0.00,VWS V14.01,2013-01-19 19:39:00,
2013-01-19 14:42:00,59.7,32.7,30.27,NNW,329,0.0,3.1,36,0.00,,---,0.00,VWS V14.01,2013-01-19 19:42:00,
2013-01-19 14:44:00,59.7,32.7,30.27,South,186,4.5,4.5,36,0.00,,---,0.00,VWS V14.01,2013-01-19 19:44:00,
2013-01-19 14:47:00,59.7,32.7,30.27,WNW,286,5.4,5.4,36,0.00,,---,0.00,VWS V14.01,2013-01-19 19:47:00,
2013-01-19 14:49:00,59.7,32.7,30.27,NNW,327,3.6,3.6,36,0.00,,---,0.00,VWS V14.01,2013-01-19 19:49:00,
2013-01-19 14:53:00,59.7,32.7,30.27,West,278,0.0,0.0,36,0.00,,---,0.00,VWS V14.01,2013-01-19 19:53:00,
2013-01-19 14:55:00,59.9,32.9,30.27,West,274,2.7,3.6,36,0.00,,---,0.00,VWS V14.01,2013-01-19 19:55:00,
2013-01-19 14:58:00,60.1,33.1,30.27,SW,225,0.0,0.0,36,0.00,,---,0.00,VWS V14.01,2013-01-19 19:58:00,
2013-01-19 15:00:00,60.3,33.2,30.27,SW,225,0.0,0.0,36,0.00,,---,0.00,VWS V14.01,2013-01-19 20:00:00,
2013-01-19 15:03:00,60.4,32.7,30.27,South,172,0.0,0.0,35,0.00,,---,0.00,VWS V14.01,2013-01-19 20:03:00,
2013-01-19 15:05:00,60.3,32.5,30.27,South,170,0.0,0.0,35,0.00,,---,0.00,VWS V14.01,2013-01-19 20:05:00,
2013-01-19 15:08:00,60.1,33.1,30.27,SSE,161,3.1,4.0,36,0.00,,---,0.00,VWS V14.01,2013-01-19 20:08:00,
2013-01-19 15:10:00,59.9,32.9,30.27,SSE,154,6.3,6.3,36,0.00,,---,0.00,VWS V14.01,2013-01-19 20:10:00,
2013-01-19 15:13:00,59.7,32.7,30.27,SSE,166,4.0,4.9,36,0.00,,---,0.00,VWS V14.01,2013-01-19 20:13:00,
2013-01-19 15:15:00,59.7,32.7,30.27,South,174,3.1,3.1,36,0.00,,---,0.00,VWS V14.01,2013-01-19 20:15:00,
2013-01-19 15:19:00,59.2,32.3,30.27,SSE,161,4.9,4.9,36,0.00,,---,0.00,VWS V14.01,2013-01-19 20:19:00,
2013-01-19 15:20:00,59.0,32.1,30.27,SSE,149,5.8,5.8,36,0.00,,---,0.00,VWS V14.01,2013-01-19 20:20:00,
2013-01-19 15:24:00,58.5,32.3,30.27,SE,127,3.1,4.0,37,0.00,,---,0.00,VWS V14.01,2013-01-19 20:24:00,
2013-01-19 15:25:00,58.1,32.0,30.27,ESE,120,5.8,5.8,37,0.00,,---,0.00,VWS V14.01,2013-01-19 20:25:00,
2013-01-19 15:29:00,57.9,32.5,30.27,SSE,166,3.6,3.6,38,0.00,,---,0.00,VWS V14.01,2013-01-19 20:29:00,
2013-01-19 15:30:00,57.7,32.3,30.27,SE,131,4.0,4.0,38,0.00,,---,0.00,VWS V14.01,2013-01-19 20:30:00,
2013-01-19 15:34:00,57.6,32.2,30.27,SE,136,4.0,4.0,38,0.00,,---,0.00,VWS V14.01,2013-01-19 20:34:00,
2013-01-19 15:35:00,57.4,32.0,30.27,SE,138,3.1,4.9,38,0.00,,---,0.00,VWS V14.01,2013-01-19 20:35:00,
2013-01-19 15:39:00,57.4,32.0,30.27,ESE,119,4.0,4.0,38,0.00,,---,0.00,VWS V14.01,2013-01-19 20:39:00,
2013-01-19 15:40:00,57.2,31.8,30.27,SSE,148,3.1,4.0,38,0.00,,---,0.00,VWS V14.01,2013-01-19 20:40:00,
2013-01-19 15:44:00,56.8,32.2,30.27,ESE,116,4.9,4.9,39,0.00,,---,0.00,VWS V14.01,2013-01-19 20:44:00,
2013-01-19 15:46:00,56.8,32.2,30.27,SE,139,4.0,5.4,39,0.00,,---,0.00,VWS V14.01,2013-01-19 20:46:00,
2013-01-19 15:49:00,56.8,32.2,30.27,South,174,3.1,3.6,39,0.00,,---,0.00,VWS V14.01,2013-01-19 20:49:00,
2013-01-19 15:52:00,56.8,32.2,30.27,SSE,167,2.7,2.7,39,0.00,,---,0.00,VWS V14.01,2013-01-19 20:52:00,
2013-01-19 15:54:00,57.0,32.3,30.27,SE,134,3.1,3.1,39,0.00,,---,0.00,VWS V14.01,2013-01-19 20:54:00,
2013-01-19 15:58:00,57.0,32.3,30.27,SE,127,3.6,5.4,39,0.00,,---,0.00,VWS V14.01,2013-01-19 20:58:00,
2013-01-19 16:00:00,56.8,32.2,30.27,SE,134,3.6,3.6,39,0.00,,---,0.00,VWS V14.01,2013-01-19 21:00:00,
2013-01-19 16:03:00,56.7,32.0,30.27,ESE,113,4.0,4.0,39,0.00,,---,0.00,VWS V14.01,2013-01-19 21:03:00,
2013-01-19 16:05:00,56.5,32.5,30.27,SE,133,2.7,4.0,40,0.00,,---,0.00,VWS V14.01,2013-01-19 21:05:00,
2013-01-19 16:08:00,56.3,32.3,30.27,ESE,105,4.9,4.9,40,0.00,,---,0.00,VWS V14.01,2013-01-19 21:08:00,
2013-01-19 16:10:00,56.1,32.2,30.27,ESE,107,5.4,5.4,40,0.00,,---,0.00,VWS V14.01,2013-01-19 21:10:00,
2013-01-19 16:13:00,55.8,32.4,30.27,SE,146,2.2,2.2,41,0.00,,---,0.00,VWS V14.01,2013-01-19 21:13:00,
2013-01-19 16:15:00,55.8,32.4,30.27,SSE,157,4.0,4.0,41,0.00,,---,0.00,VWS V14.01,2013-01-19 21:15:00,
2013-01-19 16:20:00,55.4,32.1,30.24,ESE,121,2.7,2.7,41,0.00,,---,0.00,VWS V14.01,2013-01-19 21:20:00,
2013-01-19 16:25:00,55.2,32.5,30.24,SE,133,3.1,3.1,42,0.00,,---,0.00,VWS V14.01,2013-01-19 21:25:00,
2013-01-19 16:30:00,54.9,32.2,30.24,SSE,161,2.7,2.7,42,0.00,,---,0.00,VWS V14.01,2013-01-19 21:30:00,
2013-01-19 16:31:00,54.9,32.2,30.24,SSE,161,2.7,2.7,42,0.00,,---,0.00,VWS V14.01,2013-01-19 21:31:00,
2013-01-19 16:36:00,54.7,32.1,30.24,South,169,2.7,2.7,42,0.00,,---,0.00,VWS V14.01,2013-01-19 21:36:00,
2013-01-19 16:41:00,54.3,31.7,30.24,South,191,2.2,2.7,42,0.00,,---,0.00,VWS V14.01,2013-01-19 21:41:00,
2013-01-19 16:42:00,54.3,31.7,30.24,South,185,3.6,3.6,42,0.00,,---,0.00,VWS V14.01,2013-01-19 21:42:00,
2013-01-19 16:46:00,54.0,31.4,30.24,South,190,3.6,3.6,42,0.00,,---,0.00,VWS V14.01,2013-01-19 21:46:00,
2013-01-19 16:47:00,54.0,31.4,30.24,South,190,3.6,3.6,42,0.00,,---,0.00,VWS V14.01,2013-01-19 21:47:00,
2013-01-19 16:52:00,53.8,31.2,30.24,SSE,167,2.2,3.6,42,0.00,,---,0.00,VWS V14.01,2013-01-19 21:52:00,
2013-01-19 16:57:00,53.6,31.1,30.24,SSE,167,0.0,0.0,42,0.00,,---,0.00,VWS V14.01,2013-01-19 21:57:00,
2013-01-19 17:02:00,53.4,31.5,30.24,SSE,167,0.0,0.0,43,0.00,,---,0.00,VWS V14.01,2013-01-19 22:02:00,
2013-01-19 17:07:00,53.1,31.2,30.24,SSE,168,3.1,3.1,43,0.00,,---,0.00,VWS V14.01,2013-01-19 22:07:00,
2013-01-19 17:13:00,52.9,31.6,30.24,SSE,168,0.0,0.0,44,0.00,,---,0.00,VWS V14.01,2013-01-19 22:13:00,
2013-01-19 17:18:00,52.7,31.4,30.24,SSE,168,0.0,0.0,44,0.00,,---,0.00,VWS V14.01,2013-01-19 22:18:00,
2013-01-19 17:23:00,52.2,30.9,30.24,SSE,168,0.0,0.0,44,0.00,,---,0.00,VWS V14.01,2013-01-19 22:23:00,
2013-01-19 17:28:00,51.6,31.0,30.24,SSE,168,0.0,0.0,45,0.00,,---,0.00,VWS V14.01,2013-01-19 22:28:00,
2013-01-19 17:33:00,51.3,31.2,30.24,SSE,168,0.0,0.0,46,0.00,,---,0.00,VWS V14.01,2013-01-19 22:33:00,
2013-01-19 17:38:00,50.7,30.7,30.24,SSE,168,0.0,0.0,46,0.00,,---,0.00,VWS V14.01,2013-01-19 22:38:00,
2013-01-19 17:44:00,50.0,30.6,30.24,SSE,168,0.0,0.0,47,0.00,,---,0.00,VWS V14.01,2013-01-19 22:44:00,
2013-01-19 17:49:00,49.6,30.8,30.24,SSE,168,0.0,0.0,48,0.00,,---,0.00,VWS V14.01,2013-01-19 22:49:00,
2013-01-19 17:54:00,48.9,30.6,30.24,SSE,168,0.0,0.0,49,0.00,,---,0.00,VWS V14.01,2013-01-19 22:54:00,
2013-01-19 17:59:00,48.7,30.5,30.24,SSE,168,0.0,0.0,49,0.00,,---,0.00,VWS V14.01,2013-01-19 22:59:00,
2013-01-19 18:05:00,48.0,30.3,30.24,SSE,168,0.0,0.0,50,0.00,,---,0.00,VWS V14.01,2013-01-19 23:05:00,
2013-01-19 18:10:00,47.7,30.4,30.24,SSE,168,0.0,0.0,51,0.00,,---,0.00,VWS V14.01,2013-01-19 23:10:00,
2013-01-19 18:15:00,47.5,30.3,30.24,SSE,168,0.0,0.0,51,0.00,,---,0.00,VWS V14.01,2013-01-19 23:15:00,
2013-01-19 18:20:00,47.3,30.6,30.24,SSE,168,0.0,0.0,52,0.00,,---,0.00,VWS V14.01,2013-01-19 23:20:00,
2013-01-19 18:25:00,47.1,30.4,30.24,SSE,168,0.0,0.0,52,0.00,,---,0.00,VWS V14.01,2013-01-19 23:25:00,
2013-01-19 18:30:00,46.9,30.7,30.24,SSE,168,0.0,0.0,53,0.00,,---,0.00,VWS V14.01,2013-01-19 23:30:00,
2013-01-19 18:35:00,46.6,30.4,30.24,SSE,168,0.0,0.0,53,0.00,,---,0.00,VWS V14.01,2013-01-19 23:35:00,
2013-01-19 18:40:00,45.9,30.2,30.24,SSE,168,0.0,0.0,54,0.00,,---,0.00,VWS V14.01,2013-01-19 23:40:00,
2013-01-19 18:45:00,45.5,30.3,30.24,SSE,168,0.0,0.0,55,0.00,,---,0.00,VWS V14.01,2013-01-19 23:45:00,
2013-01-19 18:50:00,45.0,30.2,30.24,SSE,168,0.0,0.0,56,0.00,,---,0.00,VWS V14.01,2013-01-19 23:50:00,
2013-01-19 18:55:00,44.8,30.5,30.24,SSE,168,0.0,0.0,57,0.00,,---,0.00,VWS V14.01,2013-01-19 23:55:00,
2013-01-19 18:56:00,44.6,30.3,30.24,SSE,168,0.0,0.0,57,0.00,,---,0.00,VWS V14.01,2013-01-19 23:56:00,
2013-01-19 19:00:00,44.6,30.8,30.24,SSE,168,0.0,0.0,58,0.00,,---,0.00,VWS V14.01,2013-01-20 00:00:00,
2013-01-19 19:01:00,44.2,30.4,30.24,SSE,168,0.0,0.0,58,0.00,,---,0.00,VWS V14.01,2013-01-20 00:01:00,
2013-01-19 19:06:00,44.1,30.7,30.24,SSE,168,0.0,0.0,59,0.00,,---,0.00,VWS V14.01,2013-01-20 00:06:00,
2013-01-19 19:11:00,44.1,31.1,30.24,SSE,168,0.0,0.0,60,0.00,,---,0.00,VWS V14.01,2013-01-20 00:11:00,
2013-01-19 19:12:00,43.9,30.9,30.24,SSE,168,0.0,0.0,60,0.00,,---,0.00,VWS V14.01,2013-01-20 00:12:00,
2013-01-19 19:16:00,43.7,31.1,30.24,SSE,168,0.0,0.0,61,0.00,,---,0.00,VWS V14.01,2013-01-20 00:16:00,
2013-01-19 19:17:00,43.7,31.1,30.24,SSE,168,0.0,0.0,61,0.00,,---,0.00,VWS V14.01,2013-01-20 00:17:00,
2013-01-19 19:22:00,43.3,30.8,30.24,SSE,168,0.0,0.0,61,0.00,,---,0.00,VWS V14.01,2013-01-20 00:22:00,
2013-01-19 19:27:00,43.0,30.5,30.24,SSE,168,0.0,0.0,61,0.00,,---,0.00,VWS V14.01,2013-01-20 00:27:00,
2013-01-19 19:32:00,42.6,30.9,30.24,SSE,168,0.0,0.0,63,0.00,,---,0.00,VWS V14.01,2013-01-20 00:32:00,
2013-01-19 19:37:00,42.4,30.8,30.24,SSE,168,0.0,0.0,63,0.00,,---,0.00,VWS V14.01,2013-01-20 00:37:00,
2013-01-19 19:38:00,42.4,30.8,30.24,SSE,168,0.0,0.0,63,0.00,,---,0.00,VWS V14.01,2013-01-20 00:38:00,
2013-01-19 19:42:00,42.4,31.1,30.24,SSE,168,0.0,0.0,64,0.00,,---,0.00,VWS V14.01,2013-01-20 00:42:00,
2013-01-19 19:43:00,42.4,31.1,30.24,SSE,168,0.0,0.0,64,0.00,,---,0.00,VWS V14.01,2013-01-20 00:43:00,
2013-01-19 19:47:00,42.4,31.5,30.24,SSE,168,0.0,0.0,65,0.00,,---,0.00,VWS V14.01,2013-01-20 00:47:00,
2013-01-19 19:48:00,42.3,31.4,30.24,SSE,168,0.0,0.0,65,0.00,,---,0.00,VWS V14.01,2013-01-20 00:48:00,
2013-01-19 19:52:00,42.3,31.4,30.24,SSE,168,0.0,0.0,65,0.00,,---,0.00,VWS V14.01,2013-01-20 00:52:00,
2013-01-19 19:53:00,42.3,31.4,30.24,SSE,168,0.0,0.0,65,0.00,,---,0.00,VWS V14.01,2013-01-20 00:53:00,
2013-01-19 19:57:00,42.1,31.6,30.24,SSE,168,0.0,0.0,66,0.00,,---,0.00,VWS V14.01,2013-01-20 00:57:00,
2013-01-19 19:58:00,42.1,31.6,30.24,SSE,168,0.0,0.0,66,0.00,,---,0.00,VWS V14.01,2013-01-20 00:58:00,
2013-01-19 20:02:00,42.1,31.9,30.24,SSE,168,0.0,0.0,67,0.00,,---,0.00,VWS V14.01,2013-01-20 01:02:00,
2013-01-19 20:03:00,42.1,31.9,30.24,SSE,168,0.0,0.0,67,0.00,,---,0.00,VWS V14.01,2013-01-20 01:03:00,
2013-01-19 20:07:00,41.9,31.8,30.24,SSE,168,0.0,0.0,67,0.00,,---,0.00,VWS V14.01,2013-01-20 01:07:00,
2013-01-19 20:08:00,41.7,31.6,30.24,SSE,168,0.0,0.0,67,0.00,,---,0.00,VWS V14.01,2013-01-20 01:08:00,
2013-01-19 20:12:00,41.5,31.4,30.24,SSE,168,0.0,0.0,67,0.00,,---,0.00,VWS V14.01,2013-01-20 01:12:00,
2013-01-19 20:13:00,41.5,31.4,30.24,SSE,168,0.0,0.0,67,0.00,,---,0.00,VWS V14.01,2013-01-20 01:13:00,
2013-01-19 20:17:00,41.5,31.4,30.24,SSE,168,0.0,0.0,67,0.00,,---,0.00,VWS V14.01,2013-01-20 01:17:00,
2013-01-19 20:19:00,41.5,31.4,30.24,SSE,168,0.0,0.0,67,0.00,,---,0.00,VWS V14.01,2013-01-20 01:19:00,
2013-01-19 20:23:00,41.4,31.6,30.24,SSE,168,0.0,0.0,68,0.00,,---,0.00,VWS V14.01,2013-01-20 01:23:00,
2013-01-19 20:24:00,41.2,31.4,30.24,SSE,168,0.0,0.0,68,0.00,,---,0.00,VWS V14.01,2013-01-20 01:24:00,
2013-01-19 20:28:00,41.2,31.4,30.24,SSE,168,0.0,0.0,68,0.00,,---,0.00,VWS V14.01,2013-01-20 01:28:00,
2013-01-19 20:29:00,41.2,31.4,30.24,SSE,168,0.0,0.0,68,0.00,,---,0.00,VWS V14.01,2013-01-20 01:29:00,
2013-01-19 20:33:00,41.2,31.4,30.21,SSE,168,0.0,0.0,68,0.00,,---,0.00,VWS V14.01,2013-01-20 01:33:00,
2013-01-19 20:34:00,41.2,31.8,30.21,SSE,168,0.0,0.0,69,0.00,,---,0.00,VWS V14.01,2013-01-20 01:34:00,
2013-01-19 20:38:00,41.0,31.6,30.21,SSE,168,0.0,0.0,69,0.00,,---,0.00,VWS V14.01,2013-01-20 01:38:00,
2013-01-19 20:39:00,41.0,31.6,30.21,SSE,168,0.0,0.0,69,0.00,,---,0.00,VWS V14.01,2013-01-20 01:39:00,
2013-01-19 20:43:00,40.8,31.5,30.21,SSE,168,0.0,0.0,69,0.00,,---,0.00,VWS V14.01,2013-01-20 01:43:00,
2013-01-19 20:44:00,40.8,31.5,30.21,SSE,168,0.0,0.0,69,0.00,,---,0.00,VWS V14.01,2013-01-20 01:44:00,
2013-01-19 20:48:00,40.6,31.3,30.21,SSE,168,0.0,0.0,69,0.00,,---,0.00,VWS V14.01,2013-01-20 01:48:00,
2013-01-19 20:49:00,40.6,31.3,30.21,SSE,168,0.0,0.0,69,0.00,,---,0.00,VWS V14.01,2013-01-20 01:49:00,
2013-01-19 20:54:00,40.5,31.8,30.21,SSE,168,0.0,0.0,71,0.00,,---,0.00,VWS V14.01,2013-01-20 01:54:00,
2013-01-19 20:59:00,40.5,32.2,30.21,SSE,168,0.0,0.0,72,0.00,,---,0.00,VWS V14.01,2013-01-20 01:59:00,
2013-01-19 21:00:00,40.5,32.2,30.21,SSE,168,0.0,0.0,72,0.00,,---,0.00,VWS V14.01,2013-01-20 02:00:00,
2013-01-19 21:04:00,40.5,32.2,30.21,SSE,168,0.0,0.0,72,0.00,,---,0.00,VWS V14.01,2013-01-20 02:04:00,
2013-01-19 21:05:00,40.5,32.5,30.21,SSE,168,0.0,0.0,73,0.00,,---,0.00,VWS V14.01,2013-01-20 02:05:00,
2013-01-19 21:09:00,40.5,32.5,30.21,SSE,168,0.0,0.0,73,0.00,,---,0.00,VWS V14.01,2013-01-20 02:09:00,
2013-01-19 21:10:00,40.5,32.5,30.21,SSE,168,0.0,0.0,73,0.00,,---,0.00,VWS V14.01,2013-01-20 02:10:00,
2013-01-19 21:14:00,40.5,32.5,30.21,SSE,168,0.0,0.0,73,0.00,,---,0.00,VWS V14.01,2013-01-20 02:14:00,
2013-01-19 21:15:00,40.5,32.5,30.21,SSE,168,0.0,0.0,73,0.00,,---,0.00,VWS V14.01,2013-01-20 02:15:00,
2013-01-19 21:19:00,40.3,32.3,30.21,SSE,168,0.0,0.0,73,0.00,,---,0.00,VWS V14.01,2013-01-20 02:19:00,
2013-01-19 21:20:00,40.3,32.3,30.21,SSE,168,0.0,0.0,73,0.00,,---,0.00,VWS V14.01,2013-01-20 02:20:00,
2013-01-19 21:24:00,40.3,32.3,30.21,SSE,168,0.0,0.0,73,0.00,,---,0.00,VWS V14.01,2013-01-20 02:24:00,
2013-01-19 21:26:00,40.3,32.7,30.21,SSE,168,0.0,0.0,74,0.00,,---,0.00,VWS V14.01,2013-01-20 02:26:00,
2013-01-19 21:30:00,40.1,32.5,30.21,SSE,168,0.0,0.0,74,0.00,,---,0.00,VWS V14.01,2013-01-20 02:30:00,
2013-01-19 21:31:00,40.1,32.5,30.21,SSE,168,0.0,0.0,74,0.00,,---,0.00,VWS V14.01,2013-01-20 02:31:00,
2013-01-19 21:35:00,40.3,33.0,30.21,SSE,168,0.0,0.0,75,0.00,,---,0.00,VWS V14.01,2013-01-20 02:35:00,
2013-01-19 21:36:00,40.3,33.0,30.21,SSE,168,0.0,0.0,75,0.00,,---,0.00,VWS V14.01,2013-01-20 02:36:00,
2013-01-19 21:40:00,40.5,33.2,30.21,SSE,168,0.0,0.0,75,0.00,,---,0.00,VWS V14.01,2013-01-20 02:40:00,
2013-01-19 21:41:00,40.5,33.2,30.21,SSE,168,0.0,0.0,75,0.00,,---,0.00,VWS V14.01,2013-01-20 02:41:00,
2013-01-19 21:45:00,40.5,33.2,30.21,SSE,168,0.0,0.0,75,0.00,,---,0.00,VWS V14.01,2013-01-20 02:45:00,
2013-01-19 21:47:00,40.5,33.2,30.21,SSE,168,0.0,0.0,75,0.00,,---,0.00,VWS V14.01,2013-01-20 02:47:00,
2013-01-19 21:50:00,40.3,32.7,30.21,SSE,168,0.0,0.0,74,0.00,,---,0.00,VWS V14.01,2013-01-20 02:50:00,
2013-01-19 21:52:00,40.3,32.7,30.21,SSE,168,0.0,0.0,74,0.00,,---,0.00,VWS V14.01,2013-01-20 02:52:00,
2013-01-19 21:55:00,39.9,32.7,30.21,SSE,168,0.0,0.0,75,0.00,,---,0.00,VWS V14.01,2013-01-20 02:55:00,
2013-01-19 21:57:00,39.9,32.7,30.21,SSE,168,0.0,0.0,75,0.00,,---,0.00,VWS V14.01,2013-01-20 02:57:00,
2013-01-19 22:00:00,39.9,33.0,30.21,SSE,168,0.0,0.0,76,0.00,,---,0.00,VWS V14.01,2013-01-20 03:00:00,
2013-01-19 22:02:00,39.9,33.0,30.21,SSE,168,0.0,0.0,76,0.00,,---,0.00,VWS V14.01,2013-01-20 03:02:00,
2013-01-19 22:05:00,39.9,33.3,30.21,SSE,168,0.0,0.0,77,0.00,,---,0.00,VWS V14.01,2013-01-20 03:05:00,
2013-01-19 22:07:00,39.9,33.3,30.21,SSE,168,0.0,0.0,77,0.00,,---,0.00,VWS V14.01,2013-01-20 03:07:00,
2013-01-19 22:10:00,39.9,33.3,30.21,SSE,168,0.0,0.0,77,0.00,,---,0.00,VWS V14.01,2013-01-20 03:10:00,
2013-01-19 22:12:00,39.9,33.3,30.21,SSE,168,0.0,0.0,77,0.00,,---,0.00,VWS V14.01,2013-01-20 03:12:00,
2013-01-19 22:16:00,39.9,33.3,30.21,SSE,168,0.0,0.0,77,0.00,,---,0.00,VWS V14.01,2013-01-20 03:16:00,
2013-01-19 22:17:00,39.7,33.1,30.21,SSE,168,0.0,0.0,77,0.00,,---,0.00,VWS V14.01,2013-01-20 03:17:00,
2013-01-19 22:21:00,39.7,33.1,30.21,SSE,168,0.0,0.0,77,0.00,,---,0.00,VWS V14.01,2013-01-20 03:21:00,
2013-01-19 22:22:00,39.7,33.1,30.21,SSE,168,0.0,0.0,77,0.00,,---,0.00,VWS V14.01,2013-01-20 03:22:00,
2013-01-19 22:26:00,39.6,33.0,30.21,SSE,168,0.0,0.0,77,0.00,,---,0.00,VWS V14.01,2013-01-20 03:26:00,
2013-01-19 22:27:00,39.6,33.0,30.21,SSE,168,0.0,0.0,77,0.00,,---,0.00,VWS V14.01,2013-01-20 03:27:00,
2013-01-19 22:32:00,39.7,33.5,30.21,SSE,168,0.0,0.0,78,0.00,,---,0.00,VWS V14.01,2013-01-20 03:32:00,
2013-01-19 22:33:00,39.7,33.5,30.18,SSE,168,0.0,0.0,78,0.00,,---,0.00,VWS V14.01,2013-01-20 03:33:00,
2013-01-19 22:37:00,39.7,33.5,30.18,SSE,168,0.0,0.0,78,0.00,,---,0.00,VWS V14.01,2013-01-20 03:37:00,
2013-01-19 22:38:00,39.7,33.5,30.18,SSE,168,0.0,0.0,78,0.00,,---,0.00,VWS V14.01,2013-01-20 03:38:00,
2013-01-19 22:43:00,39.7,33.5,30.18,SSE,168,0.0,0.0,78,0.00,,---,0.00,VWS V14.01,2013-01-20 03:43:00,
2013-01-19 22:48:00,39.7,33.5,30.18,SSE,168,0.0,0.0,78,0.00,,---,0.00,VWS V14.01,2013-01-20 03:48:00,
2013-01-19 22:53:00,39.7,33.5,30.18,SSE,168,0.0,0.0,78,0.00,,---,0.00,VWS V14.01,2013-01-20 03:53:00,
2013-01-19 22:58:00,39.6,33.3,30.18,SSE,168,0.0,0.0,78,0.00,,---,0.00,VWS V14.01,2013-01-20 03:58:00,
2013-01-19 23:03:00,39.4,33.1,30.18,SSE,168,0.0,0.0,78,0.00,,---,0.00,VWS V14.01,2013-01-20 04:03:00,
2013-01-19 23:08:00,39.2,32.9,30.18,SSE,168,0.0,0.0,78,0.00,,---,0.00,VWS V14.01,2013-01-20 04:08:00,
2013-01-19 23:13:00,39.2,32.9,30.18,SSE,168,0.0,0.0,78,0.00,,---,0.00,VWS V14.01,2013-01-20 04:13:00,
2013-01-19 23:14:00,39.2,32.9,30.18,SSE,168,0.0,0.0,78,0.00,,---,0.00,VWS V14.01,2013-01-20 04:14:00,
2013-01-19 23:18:00,39.2,32.9,30.18,SSE,168,0.0,0.0,78,0.00,,---,0.00,VWS V14.01,2013-01-20 04:18:00,
2013-01-19 23:19:00,39.2,32.9,30.18,SSE,168,0.0,0.0,78,0.00,,---,0.00,VWS V14.01,2013-01-20 04:19:00,
2013-01-19 23:23:00,39.0,33.1,30.18,SSE,168,0.0,0.0,79,0.00,,---,0.00,VWS V14.01,2013-01-20 04:23:00,
2013-01-19 23:24:00,39.0,33.1,30.18,SSE,168,0.0,0.0,79,0.00,,---,0.00,VWS V14.01,2013-01-20 04:24:00,
2013-01-19 23:28:00,39.0,33.4,30.18,SSE,168,0.0,0.0,80,0.00,,---,0.00,VWS V14.01,2013-01-20 04:28:00,
2013-01-19 23:29:00,39.0,33.4,30.18,SSE,168,0.0,0.0,80,0.00,,---,0.00,VWS V14.01,2013-01-20 04:29:00,
2013-01-19 23:33:00,38.8,32.9,30.18,SSE,168,0.0,0.0,79,0.00,,---,0.00,VWS V14.01,2013-01-20 04:33:00,
2013-01-19 23:34:00,38.8,32.9,30.18,SSE,168,0.0,0.0,79,0.00,,---,0.00,VWS V14.01,2013-01-20 04:34:00,
2013-01-19 23:39:00,38.7,32.7,30.15,SSE,168,0.0,0.0,79,0.00,,---,0.00,VWS V14.01,2013-01-20 04:39:00,
2013-01-19 23:44:00,38.7,32.7,30.15,SSE,168,0.0,0.0,79,0.00,,---,0.00,VWS V14.01,2013-01-20 04:44:00,
2013-01-19 23:49:00,38.5,32.9,30.15,SSE,168,0.0,0.0,80,0.00,,---,0.00,VWS V14.01,2013-01-20 04:49:00,
2013-01-19 23:54:00,38.1,32.5,30.15,SSE,168,0.0,0.0,80,0.00,,---,0.00,VWS V14.01,2013-01-20 04:54:00,
2013-01-19 23:55:00,38.1,32.5,30.15,SSE,168,0.0,0.0,80,0.00,,---,0.00,VWS V14.01,2013-01-20 04:55:00,
2013-01-19 23:59:00,37.9,32.3,30.15,West,280,3.1,3.1,80,0.00,,---,0.00,VWS V14.01,2013-01-20 04:59:00,